Time;durP1;ratioP1;P1;durP2;ratioP2;P2;SDS_P1;SDS_P2;PMS_P1;PMS_P2;Temp;Humidity;BMP_temperature;BMP_pressure;BME280_temperature;BME280_humidity;BME280_pressure;Samples;Min_cycle;Max_cycle;Signal;HPM_P1;HPM_P2
2022/10/31 00:01:40;;;;;;;2.33;2.23;;;;;;;13.82;90.73;95904.34;4282100;33;20264;-62
2022/10/31 00:04:06;;;;;;;1.77;1.67;;;;;;;13.63;91.51;95904.47;4297434;33;20250;-63
2022/10/31 00:06:32;;;;;;;3.30;3.00;;;;;;;13.70;91.61;95901.44;4311606;33;20194;-62
2022/10/31 00:09:05;;;;;;;2.33;2.13;;;;;;;13.76;91.18;95903.66;4328792;32;20194;-62
2022/10/31 00:11:31;;;;;;;3.07;2.10;;;;;;;13.73;91.41;95900.81;4326125;32;20189;-62
2022/10/31 00:13:59;;;;;;;1.87;1.77;;;;;;;13.68;91.55;95895.59;4307881;33;20208;-62
2022/10/31 00:16:27;;;;;;;2.00;1.90;;;;;;;13.68;92.09;95901.72;4310559;33;20198;-63
2022/10/31 00:18:57;;;;;;;2.03;1.93;;;;;;;13.57;92.52;95899.53;4306804;33;20202;-62
2022/10/31 00:21:23;;;;;;;2.37;2.27;;;;;;;13.64;92.30;95900.72;4274568;33;20212;-62
2022/10/31 00:23:48;;;;;;;1.53;1.43;;;;;;;13.62;91.84;95910.91;4283869;33;20237;-62
2022/10/31 00:26:14;;;;;;;1.67;1.57;;;;;;;13.62;91.57;95902.13;4313690;33;20186;-62
2022/10/31 00:28:41;;;;;;;4.07;1.87;;;;;;;13.58;91.92;95899.25;4303423;33;20213;-62
2022/10/31 00:31:09;;;;;;;1.40;1.40;;;;;;;13.44;91.92;95895.81;4305312;33;20200;-63
2022/10/31 00:33:36;;;;;;;4.27;2.23;;;;;;;13.50;91.71;95899.97;4303912;33;20222;-62
2022/10/31 00:36:03;;;;;;;2.23;2.03;;;;;;;13.51;91.83;95906.09;4268518;33;20214;-62
2022/10/31 00:38:28;;;;;;;8.67;2.20;;;;;;;13.35;92.25;95903.69;4308871;33;20201;-62
2022/10/31 00:40:54;;;;;;;1.87;1.77;;;;;;;13.36;92.33;95901.81;4313093;33;20280;-62
2022/10/31 00:43:19;;;;;;;1.63;1.53;;;;;;;13.39;91.67;95901.22;4273134;33;20209;-63
2022/10/31 00:45:46;;;;;;;1.83;1.73;;;;;;;13.21;92.50;95894.91;4291911;33;20183;-63
2022/10/31 00:48:11;;;;;;;3.10;2.80;;;;;;;13.32;92.17;95892.84;4313054;33;20194;-63
2022/10/31 00:50:37;;;;;;;1.90;1.80;;;;;;;13.24;92.53;95899.66;4324972;32;20190;-63
2022/10/31 00:53:08;;;;;;;2.17;1.97;;;;;;;13.43;91.46;95888.09;4297221;33;20281;-63
2022/10/31 00:55:34;;;;;;;2.27;1.77;;;;;;;13.20;92.33;95892.53;4296433;33;20225;-62
2022/10/31 00:58:01;;;;;;;1.50;1.40;;;;;;;13.38;92.00;95886.31;4312330;33;20217;-63
2022/10/31 01:00:27;;;;;;;1.80;1.70;;;;;;;13.41;91.87;95888.41;4313501;33;20190;-63
2022/10/31 01:02:54;;;;;;;1.33;1.33;;;;;;;13.40;91.50;95895.59;4313733;33;20201;-63
2022/10/31 01:05:22;;;;;;;4.07;2.63;;;;;;;13.41;91.03;95891.06;4264603;33;20202;-63
2022/10/31 01:07:47;;;;;;;1.43;1.43;;;;;;;13.45;91.21;95886.72;4279378;33;20217;-63
2022/10/31 01:10:15;;;;;;;1.77;1.67;;;;;;;13.34;91.42;95896.78;4305033;33;20196;-63
2022/10/31 01:12:44;;;;;;;5.80;2.33;;;;;;;13.36;91.56;95889.28;4322071;33;20204;-63
2022/10/31 01:15:12;;;;;;;3.30;2.43;;;;;;;13.25;91.82;95895.13;4299841;33;20289;-63
2022/10/31 01:17:39;;;;;;;2.73;2.17;;;;;;;13.33;91.54;95894.41;4279029;33;20310;-63
2022/10/31 01:20:08;;;;;;;4.10;1.47;;;;;;;13.39;91.15;95894.03;4310070;33;20194;-64
2022/10/31 01:22:38;;;;;;;1.53;1.47;;;;;;;13.35;91.60;95898.38;4278435;33;20258;-62
2022/10/31 01:25:06;;;;;;;1.47;1.47;;;;;;;13.41;91.27;95891.84;4282467;33;20253;-63
2022/10/31 01:27:32;;;;;;;1.83;1.70;;;;;;;13.44;90.84;95884.34;4306816;33;20194;-62
2022/10/31 01:29:57;;;;;;;1.30;1.20;;;;;;;13.39;90.71;95901.22;4316223;33;20316;-62
2022/10/31 01:32:24;;;;;;;6.37;1.47;;;;;;;13.36;90.64;95891.16;4320890;33;20194;-62
2022/10/31 01:34:50;;;;;;;1.50;1.43;;;;;;;13.41;90.49;95896.41;4298587;33;20248;-62
2022/10/31 01:37:18;;;;;;;2.50;2.17;;;;;;;13.16;91.26;95900.34;4284529;33;20198;-63
2022/10/31 01:39:44;;;;;;;3.20;2.03;;;;;;;13.16;91.47;95896.88;4321314;33;20204;-62
2022/10/31 01:42:18;;;;;;;6.07;1.97;;;;;;;13.20;91.55;95897.88;4315095;33;20250;-62
2022/10/31 01:44:57;;;;;;;3.03;2.17;;;;;;;13.23;91.30;95889.28;4355479;32;20257;-62
2022/10/31 01:47:49;;;;;;;1.03;1.03;;;;;;;13.24;91.45;95893.53;4294071;32;20190;-62
2022/10/31 01:50:33;;;;;;;1.63;1.47;;;;;;;13.28;91.31;95891.88;4303199;32;20193;-62
2022/10/31 01:53:01;;;;;;;2.10;1.73;;;;;;;13.32;91.12;95890.16;4303010;32;20239;-62
2022/10/31 01:55:36;;;;;;;2.20;2.00;;;;;;;13.34;90.85;95893.31;4308486;32;20211;-62
2022/10/31 01:58:20;;;;;;;1.70;1.60;;;;;;;13.30;90.72;95892.37;4307007;33;20189;-62
2022/10/31 02:00:52;;;;;;;4.50;2.70;;;;;;;13.28;90.63;95883.88;4315747;32;20255;-62
2022/10/31 02:03:19;;;;;;;1.30;0.87;;;;;;;13.20;91.03;95882.69;4282340;33;20190;-62
2022/10/31 02:05:47;;;;;;;3.17;2.43;;;;;;;13.26;91.03;95888.72;4334468;32;20185;-62
2022/10/31 02:08:26;;;;;;;12.27;2.03;;;;;;;13.31;90.65;95892.03;4307658;32;20200;-62
2022/10/31 02:10:51;;;;;;;2.10;1.83;;;;;;;13.21;91.16;95880.81;4317560;33;20193;-62
2022/10/31 02:13:19;;;;;;;2.27;2.07;;;;;;;13.29;90.95;95888.13;4316589;32;20257;-62
2022/10/31 02:15:51;;;;;;;14.13;1.60;;;;;;;13.29;90.63;95888.91;4333578;32;20224;-62
2022/10/31 02:18:18;;;;;;;1.47;1.47;;;;;;;13.20;90.86;95890.66;4324815;32;20193;-62
2022/10/31 02:20:54;;;;;;;3.17;2.30;;;;;;;13.27;90.91;95884.97;4308207;32;20232;-62
2022/10/31 02:23:38;;;;;;;1.80;1.67;;;;;;;13.04;91.75;95886.69;4304632;33;20189;-62
2022/10/31 02:26:31;;;;;;;2.37;1.83;;;;;;;13.22;91.20;95887.72;4333505;32;20212;-62
2022/10/31 02:29:18;;;;;;;2.47;2.20;;;;;;;13.16;91.16;95886.22;4340947;32;20261;-62
2022/10/31 02:32:11;;;;;;;3.50;2.37;;;;;;;13.14;90.84;95883.81;4335205;32;20260;-62
2022/10/31 02:34:48;;;;;;;1.73;1.63;;;;;;;12.98;91.68;95887.84;4274681;33;20301;-61
2022/10/31 02:37:25;;;;;;;1.60;1.50;;;;;;;13.03;91.77;95895.75;4297748;33;20194;-62
2022/10/31 02:39:58;;;;;;;3.90;1.50;;;;;;;13.16;91.10;95895.00;4307110;33;20201;-62
2022/10/31 02:42:57;;;;;;;1.47;1.37;;;;;;;13.12;91.15;95890.53;4338336;32;20243;-62
2022/10/31 02:45:36;;;;;;;2.20;1.93;;;;;;;13.07;91.02;95886.91;4312100;32;20188;-62
2022/10/31 02:48:14;;;;;;;2.30;2.20;;;;;;;13.12;90.76;95887.84;4304950;32;20288;-63
2022/10/31 02:50:45;;;;;;;1.17;1.17;;;;;;;13.10;90.58;95885.50;4310644;33;20196;-62
2022/10/31 02:53:15;;;;;;;1.13;0.83;;;;;;;13.01;91.14;95885.41;4311999;33;20220;-62
2022/10/31 02:56:15;;;;;;;2.33;1.63;;;;;;;13.03;91.14;95885.09;4321675;32;20249;-62
2022/10/31 02:59:02;;;;;;;4.33;2.73;;;;;;;13.02;91.18;95884.31;4292374;32;20268;-63
2022/10/31 03:01:49;;;;;;;1.33;1.30;;;;;;;13.15;90.55;95892.59;4282105;33;20396;-62
2022/10/31 03:04:38;;;;;;;1.27;1.10;;;;;;;13.06;90.79;95892.50;4321804;32;20173;-62
2022/10/31 03:07:36;;;;;;;1.73;1.53;;;;;;;13.15;90.33;95892.59;4309272;32;20181;-62
2022/10/31 03:10:41;;;;;;;1.37;1.27;;;;;;;13.12;90.44;95890.53;4324323;32;20181;-62
2022/10/31 03:13:46;;;;;;;1.33;0.87;;;;;;;13.04;90.98;95887.47;4288488;32;20241;-62
2022/10/31 03:16:27;;;;;;;3.13;1.77;;;;;;;12.96;91.08;95890.81;4316445;32;20204;-63
2022/10/31 03:19:02;;;;;;;1.37;1.30;;;;;;;13.01;90.80;95880.06;4337062;32;20194;-63
2022/10/31 03:21:33;;;;;;;1.10;1.10;;;;;;;12.97;91.23;95881.75;4328390;32;20295;-62
2022/10/31 03:24:05;;;;;;;2.17;2.07;;;;;;;12.85;91.50;95886.75;4330687;32;20228;-62
2022/10/31 03:26:34;;;;;;;2.00;1.90;;;;;;;12.88;91.33;95888.06;4313731;33;20211;-62
2022/10/31 03:29:06;;;;;;;1.37;1.37;;;;;;;12.98;91.03;95888.66;4318498;33;20200;-62
2022/10/31 03:31:39;;;;;;;1.00;1.00;;;;;;;12.91;91.16;95890.88;4325700;32;20193;-62
2022/10/31 03:34:07;;;;;;;3.60;1.90;;;;;;;12.91;91.21;95887.44;4329341;32;20181;-62
2022/10/31 03:36:38;;;;;;;2.03;1.63;;;;;;;12.84;91.50;95889.72;4327715;33;20177;-62
2022/10/31 03:39:10;;;;;;;0.53;0.53;;;;;;;12.83;91.41;95885.47;4313031;33;20189;-62
2022/10/31 03:41:43;;;;;;;2.63;1.57;;;;;;;12.88;91.32;95888.84;4293221;33;20240;-63
2022/10/31 03:44:18;;;;;;;1.17;1.17;;;;;;;12.85;91.54;95885.97;4310216;33;20432;-62
2022/10/31 03:46:45;;;;;;;1.10;1.10;;;;;;;12.86;91.51;95879.56;4316011;33;20212;-62
2022/10/31 03:49:12;;;;;;;1.20;1.10;;;;;;;13.00;90.81;95886.47;4307664;33;20186;-63
2022/10/31 03:52:00;;;;;;;1.20;1.13;;;;;;;12.99;90.49;95884.91;4320277;33;20182;-64
2022/10/31 03:54:37;;;;;;;2.47;1.80;;;;;;;12.89;91.15;95890.38;4287892;33;20245;-63
2022/10/31 03:57:11;;;;;;;1.17;1.17;;;;;;;12.95;91.15;95889.22;4313051;33;20193;-63
2022/10/31 03:59:43;;;;;;;1.77;1.67;;;;;;;12.93;91.38;95887.94;4283367;33;20238;-64
2022/10/31 04:02:14;;;;;;;0.93;0.93;;;;;;;13.02;90.71;95883.53;4267526;33;20266;-63
2022/10/31 04:04:40;;;;;;;3.30;1.53;;;;;;;12.98;90.65;95888.66;4314171;33;20226;-64
2022/10/31 04:07:16;;;;;;;1.10;1.07;;;;;;;13.04;90.39;95882.16;4299268;33;20185;-64
2022/10/31 04:09:47;;;;;;;1.73;1.63;;;;;;;12.99;90.61;95886.78;4271889;33;20190;-64
2022/10/31 04:12:15;;;;;;;1.60;1.50;;;;;;;13.00;90.26;95889.16;4278560;33;20190;-63
2022/10/31 04:14:48;;;;;;;2.10;2.00;;;;;;;13.04;89.92;95892.00;4289297;33;20183;-63
2022/10/31 04:17:18;;;;;;;1.20;1.20;;;;;;;12.82;90.63;95890.00;4313461;33;20193;-63
2022/10/31 04:19:45;;;;;;;2.23;2.13;;;;;;;12.86;90.51;95877.69;4294945;33;20217;-63
2022/10/31 04:22:10;;;;;;;1.40;1.30;;;;;;;12.82;90.42;95890.00;4296296;33;20197;-63
2022/10/31 04:24:39;;;;;;;4.13;1.57;;;;;;;12.68;91.12;95889.16;4312909;33;20177;-64
2022/10/31 04:27:07;;;;;;;1.90;1.50;;;;;;;12.86;90.60;95875.03;4293095;33;20240;-63
2022/10/31 04:29:34;;;;;;;1.93;1.67;;;;;;;12.73;91.09;95884.56;4313637;33;20196;-63
2022/10/31 04:32:01;;;;;;;7.30;1.70;;;;;;;12.77;90.60;95894.63;4287289;33;20261;-63
2022/10/31 04:34:27;;;;;;;1.50;1.23;;;;;;;12.87;89.69;95889.91;4313408;33;20186;-63
2022/10/31 04:36:52;;;;;;;2.17;1.37;;;;;;;12.74;90.36;95898.66;4283158;33;20212;-63
2022/10/31 04:39:18;;;;;;;1.20;1.20;;;;;;;12.82;89.84;95900.66;4318302;33;20268;-63
2022/10/31 04:41:45;;;;;;;1.30;1.30;;;;;;;12.83;89.57;95902.22;4313361;33;20182;-63
2022/10/31 04:44:12;;;;;;;1.17;1.17;;;;;;;12.81;89.89;95904.41;4337079;33;20194;-63
2022/10/31 04:46:38;;;;;;;8.67;1.10;;;;;;;12.78;90.18;95899.66;4327696;33;20208;-64
2022/10/31 04:49:05;;;;;;;0.90;0.90;;;;;;;12.79;89.81;95898.56;4313702;33;20255;-63
2022/10/31 04:51:32;;;;;;;1.40;1.30;;;;;;;12.78;89.82;95898.88;4332459;33;20177;-62
2022/10/31 04:53:57;;;;;;;1.83;1.73;;;;;;;12.82;89.54;95903.31;4340963;32;20192;-62
2022/10/31 04:56:24;;;;;;;1.33;1.27;;;;;;;12.80;89.55;95902.81;4328564;32;20212;-62
2022/10/31 04:58:51;;;;;;;1.70;1.60;;;;;;;12.85;89.36;95900.06;4335318;32;20220;-62
2022/10/31 05:01:16;;;;;;;1.33;1.20;;;;;;;12.81;89.34;95906.28;4307834;33;20193;-62
2022/10/31 05:03:42;;;;;;;0.97;0.87;;;;;;;12.81;89.30;95896.41;4291645;33;20182;-62
2022/10/31 05:06:10;;;;;;;1.40;1.40;;;;;;;12.77;89.66;95900.72;4305037;33;20221;-62
2022/10/31 05:08:36;;;;;;;1.07;1.07;;;;;;;12.76;89.76;95898.34;4320348;32;20186;-62
2022/10/31 05:11:03;;;;;;;1.53;1.43;;;;;;;12.73;89.89;95891.75;4348381;32;20200;-62
2022/10/31 05:13:29;;;;;;;1.83;1.73;;;;;;;12.74;89.54;95888.00;4345920;32;20197;-62
2022/10/31 05:15:55;;;;;;;0.87;0.87;;;;;;;12.63;89.82;95887.41;4323221;32;22849;-62
2022/10/31 05:18:23;;;;;;;5.70;1.50;;;;;;;12.69;89.36;95896.06;4327890;32;20208;-63
2022/10/31 05:20:48;;;;;;;4.80;1.33;;;;;;;12.67;89.48;95898.25;4327695;32;20170;-62
2022/10/31 05:23:14;;;;;;;1.33;1.27;;;;;;;12.51;89.76;95888.91;4329600;32;20182;-62
2022/10/31 05:25:40;;;;;;;1.63;1.20;;;;;;;12.64;89.38;95888.19;4314609;32;20232;-62
2022/10/31 05:28:09;;;;;;;1.27;1.17;;;;;;;12.56;89.51;95883.53;4345300;32;20205;-63
2022/10/31 05:30:35;;;;;;;1.10;0.97;;;;;;;12.41;90.20;95878.47;4330888;32;20173;-62
2022/10/31 05:33:02;;;;;;;5.40;0.97;;;;;;;12.31;90.88;95880.19;4316627;33;20182;-62
2022/10/31 05:35:31;;;;;;;2.20;1.67;;;;;;;12.33;90.87;95883.34;4337395;32;20199;-62
2022/10/31 05:37:58;;;;;;;1.53;1.43;;;;;;;12.35;90.44;95877.75;4289286;33;20194;-62
2022/10/31 05:40:25;;;;;;;1.47;1.27;;;;;;;12.34;90.09;95879.59;4331850;32;20181;-62
2022/10/31 05:42:54;;;;;;;1.70;1.27;;;;;;;12.46;89.25;95875.72;4343382;32;20182;-62
2022/10/31 05:45:21;;;;;;;2.07;1.50;;;;;;;12.43;89.45;95877.09;4308739;32;20251;-62
2022/10/31 05:47:56;;;;;;;0.90;0.90;;;;;;;12.32;89.76;95875.66;4309743;32;20205;-62
2022/10/31 05:50:25;;;;;;;1.13;1.13;;;;;;;12.25;89.93;95881.38;4328046;32;20189;-63
2022/10/31 05:52:56;;;;;;;1.00;1.00;;;;;;;12.11;90.45;95877.84;4285160;32;20204;-62
2022/10/31 05:55:23;;;;;;;1.10;1.10;;;;;;;12.02;90.80;95880.38;4274290;33;20225;-62
2022/10/31 05:57:48;;;;;;;0.90;0.90;;;;;;;12.03;90.67;95881.94;4331468;32;20182;-62
2022/10/31 06:00:15;;;;;;;8.07;2.47;;;;;;;12.05;90.58;95877.09;4335013;32;20204;-62
2022/10/31 06:02:40;;;;;;;2.23;1.27;;;;;;;12.05;89.97;95871.03;4324662;32;20200;-62
2022/10/31 06:05:06;;;;;;;2.00;1.20;;;;;;;12.11;89.84;95875.16;4317499;32;20259;-62
2022/10/31 06:07:35;;;;;;;1.33;1.33;;;;;;;12.04;89.69;95875.56;4340889;32;20186;-62
2022/10/31 06:10:04;;;;;;;4.97;2.87;;;;;;;12.14;89.31;95877.25;4329511;32;20189;-62
2022/10/31 06:12:30;;;;;;;2.47;1.40;;;;;;;12.11;88.89;95882.34;4310423;32;20185;-62
2022/10/31 06:14:55;;;;;;;2.20;2.10;;;;;;;11.94;89.16;95882.88;4319563;32;20200;-62
2022/10/31 06:17:21;;;;;;;5.07;1.40;;;;;;;11.75;89.87;95888.16;4318799;32;20316;-62
2022/10/31 06:19:48;;;;;;;1.40;1.30;;;;;;;11.63;90.06;95891.25;4343882;32;20185;-62
2022/10/31 06:22:14;;;;;;;6.67;1.40;;;;;;;11.43;91.22;95891.47;4344401;32;20251;-63
2022/10/31 06:24:40;;;;;;;2.63;2.00;;;;;;;11.47;91.36;95897.81;4312326;32;20244;-62
2022/10/31 06:27:05;;;;;;;0.97;0.97;;;;;;;11.68;90.71;95898.34;4314216;33;20177;-63
2022/10/31 06:29:32;;;;;;;2.00;1.50;;;;;;;11.67;90.33;95896.75;4322694;32;20360;-62
2022/10/31 06:31:57;;;;;;;1.93;1.57;;;;;;;11.43;90.99;95902.09;4285958;33;20209;-62
2022/10/31 06:34:22;;;;;;;1.50;1.40;;;;;;;11.51;91.31;95898.81;4319721;32;20189;-62
2022/10/31 06:36:48;;;;;;;1.33;1.33;;;;;;;11.48;90.97;95898.59;4266807;33;20197;-62
2022/10/31 06:39:14;;;;;;;0.87;0.87;;;;;;;11.83;89.88;95889.41;4300076;33;20200;-62
2022/10/31 06:41:41;;;;;;;1.63;1.53;;;;;;;11.87;89.59;95890.41;4302058;33;20218;-62
2022/10/31 06:44:08;;;;;;;6.60;1.73;;;;;;;11.74;90.22;95880.47;4293380;33;20317;-63
2022/10/31 06:46:35;;;;;;;1.17;1.17;;;;;;;11.77;90.09;95886.03;4293560;32;20242;-62
2022/10/31 06:49:03;;;;;;;1.43;1.37;;;;;;;11.93;89.71;95889.28;4262913;33;20192;-62
2022/10/31 06:51:28;;;;;;;1.53;1.53;;;;;;;11.89;89.51;95888.25;4311546;33;20237;-62
2022/10/31 06:53:54;;;;;;;3.87;1.77;;;;;;;12.01;88.98;95880.66;4312529;32;20186;-62
2022/10/31 06:56:20;;;;;;;1.07;1.07;;;;;;;11.97;89.43;95885.75;4264045;33;20283;-62
2022/10/31 06:58:46;;;;;;;2.80;1.57;;;;;;;12.08;88.67;95890.91;4308607;33;20186;-62
2022/10/31 07:01:14;;;;;;;2.00;1.83;;;;;;;12.09;88.94;95890.63;4302271;33;20186;-62
2022/10/31 07:03:39;;;;;;;2.40;2.20;;;;;;;12.20;88.25;95889.41;4310073;33;20265;-63
2022/10/31 07:06:05;;;;;;;1.73;1.63;;;;;;;12.11;88.73;95898.31;4309737;33;20174;-62
2022/10/31 07:08:31;;;;;;;0.93;0.93;;;;;;;12.27;88.41;95894.34;4293399;33;20229;-62
2022/10/31 07:10:58;;;;;;;1.07;1.07;;;;;;;12.31;88.33;95898.00;4313743;33;20183;-62
2022/10/31 07:13:25;;;;;;;2.13;2.03;;;;;;;12.30;88.55;95889.25;4303952;33;20201;-62
2022/10/31 07:15:53;;;;;;;1.50;1.40;;;;;;;12.46;87.95;95903.13;4277240;33;20229;-62
2022/10/31 07:18:20;;;;;;;2.33;1.80;;;;;;;12.45;88.00;95900.75;4307118;33;20182;-62
2022/10/31 07:20:48;;;;;;;2.90;1.60;;;;;;;12.47;87.80;95899.34;4278504;33;20199;-62
2022/10/31 07:23:15;;;;;;;1.37;1.03;;;;;;;12.46;88.14;95897.00;4294589;33;20190;-62
2022/10/31 07:25:40;;;;;;;1.20;1.20;;;;;;;12.52;87.97;95893.94;4284787;33;20259;-62
2022/10/31 07:28:07;;;;;;;1.53;1.20;;;;;;;12.51;87.94;95897.69;4283645;33;20262;-63
2022/10/31 07:30:32;;;;;;;2.00;1.27;;;;;;;12.49;88.09;95901.72;4304697;33;20181;-62
2022/10/31 07:32:58;;;;;;;2.10;1.93;;;;;;;12.55;88.58;95897.91;4291715;33;20241;-62
2022/10/31 07:35:26;;;;;;;1.00;1.00;;;;;;;12.54;88.57;95902.44;4313692;33;20207;-62
2022/10/31 07:37:54;;;;;;;1.10;1.10;;;;;;;12.62;88.73;95901.00;4293984;33;20251;-62
2022/10/31 07:40:21;;;;;;;2.53;1.70;;;;;;;12.74;88.41;95896.00;4281394;33;20255;-62
2022/10/31 07:42:50;;;;;;;3.53;1.90;;;;;;;12.72;89.10;95896.28;4281367;33;20190;-63
2022/10/31 07:45:21;;;;;;;1.50;1.50;;;;;;;12.74;89.23;95894.13;4317392;33;20192;-62
2022/10/31 07:47:53;;;;;;;2.43;1.70;;;;;;;12.73;89.25;95897.84;4328736;32;20177;-62
2022/10/31 07:50:22;;;;;;;3.73;1.87;;;;;;;12.80;89.36;95896.69;4325946;32;20186;-62
2022/10/31 07:53:05;;;;;;;4.27;1.37;;;;;;;12.80;89.30;95892.16;4319359;32;20264;-62
2022/10/31 07:55:30;;;;;;;1.97;1.83;;;;;;;12.91;88.94;95890.09;4303851;32;20257;-62
2022/10/31 07:58:00;;;;;;;1.60;1.57;;;;;;;12.89;88.99;95889.59;4310352;32;20262;-62
2022/10/31 08:00:28;;;;;;;1.50;1.40;;;;;;;12.94;89.04;95887.66;4326899;32;20300;-62
2022/10/31 08:03:11;;;;;;;2.33;2.10;;;;;;;13.03;88.89;95885.91;4319234;32;20190;-62
2022/10/31 08:05:37;;;;;;;1.57;1.40;;;;;;;13.07;88.75;95886.91;4292121;33;20186;-63
2022/10/31 08:08:04;;;;;;;2.03;1.37;;;;;;;13.19;88.49;95882.97;4329420;32;20249;-64
2022/10/31 08:10:31;;;;;;;0.93;0.93;;;;;;;13.21;88.48;95883.47;4324999;32;20235;-62
2022/10/31 08:13:01;;;;;;;10.03;1.70;;;;;;;13.18;88.75;95881.38;4329235;32;20194;-62
2022/10/31 08:15:29;;;;;;;2.10;1.57;;;;;;;13.25;88.19;95879.91;4319956;32;20224;-62
2022/10/31 08:17:54;;;;;;;1.73;1.27;;;;;;;13.33;88.37;95878.41;4287831;33;20185;-62
2022/10/31 08:20:20;;;;;;;2.27;2.07;;;;;;;13.40;87.87;95876.16;4288130;33;20239;-62
2022/10/31 08:22:58;;;;;;;3.77;2.33;;;;;;;13.39;88.11;95878.03;4327214;33;20190;-62
2022/10/31 08:25:26;;;;;;;1.87;1.77;;;;;;;13.46;88.03;95866.97;4317643;33;20213;-62
2022/10/31 08:27:56;;;;;;;1.53;1.10;;;;;;;13.51;86.56;95864.19;4329059;32;20178;-62
2022/10/31 08:30:28;;;;;;;1.10;1.10;;;;;;;13.63;85.25;95866.38;4329934;32;20181;-63
2022/10/31 08:33:04;;;;;;;1.87;1.77;;;;;;;13.69;85.49;95865.19;4307475;32;20182;-62
2022/10/31 08:35:29;;;;;;;0.70;0.70;;;;;;;13.72;86.38;95860.00;4320194;32;20272;-62
2022/10/31 08:37:57;;;;;;;1.27;1.23;;;;;;;13.74;86.55;95862.37;4319506;32;20257;-62
2022/10/31 08:40:25;;;;;;;1.23;1.23;;;;;;;13.82;86.14;95861.69;4316304;32;20193;-62
2022/10/31 08:43:05;;;;;;;2.40;1.90;;;;;;;13.81;87.18;95853.97;4325594;32;20228;-62
2022/10/31 08:45:33;;;;;;;1.50;1.40;;;;;;;13.90;86.34;95849.53;4326528;32;20201;-62
2022/10/31 08:48:03;;;;;;;3.63;2.00;;;;;;;14.01;85.55;95853.53;4313330;33;20204;-62
2022/10/31 08:50:29;;;;;;;6.33;1.90;;;;;;;14.04;86.23;95842.25;4292277;33;20174;-63
2022/10/31 08:53:08;;;;;;;2.40;2.30;;;;;;;14.15;86.09;95848.94;4329997;32;20257;-62
2022/10/31 08:55:35;;;;;;;2.47;2.27;;;;;;;14.28;86.32;95842.75;4306564;33;20177;-62
2022/10/31 08:58:02;;;;;;;11.63;2.00;;;;;;;14.35;86.51;95844.97;4326350;33;20192;-62
2022/10/31 09:00:27;;;;;;;3.60;2.47;;;;;;;14.32;86.62;95843.75;4318591;32;20297;-62
2022/10/31 09:03:05;;;;;;;1.67;1.57;;;;;;;14.35;86.72;95845.78;4320678;32;20189;-62
2022/10/31 09:05:32;;;;;;;1.90;1.80;;;;;;;14.38;87.09;95829.16;4317231;33;20177;-62
2022/10/31 09:08:00;;;;;;;14.07;3.80;;;;;;;14.44;87.37;95825.31;4326131;32;20217;-62
2022/10/31 09:10:29;;;;;;;3.77;3.37;;;;;;;14.48;87.53;95832.72;4315661;32;20341;-62
2022/10/31 09:13:00;;;;;;;2.37;2.13;;;;;;;14.60;87.18;95825.69;4301212;32;20259;-62
2022/10/31 09:15:27;;;;;;;6.43;2.20;;;;;;;14.62;87.19;95820.06;4310482;32;20315;-62
2022/10/31 09:17:54;;;;;;;1.90;1.80;;;;;;;14.71;86.69;95819.03;4319086;32;20232;-62
2022/10/31 09:20:20;;;;;;;2.70;2.50;;;;;;;14.80;86.18;95821.72;4306964;32;20195;-62
2022/10/31 09:22:45;;;;;;;3.27;2.63;;;;;;;14.83;85.94;95812.31;4331689;32;20186;-62
2022/10/31 09:25:12;;;;;;;3.17;2.03;;;;;;;14.88;85.80;95812.97;4328070;32;20263;-63
2022/10/31 09:28:01;;;;;;;1.53;1.53;;;;;;;15.00;84.69;95805.16;4313061;32;20190;-63
2022/10/31 09:30:30;;;;;;;2.10;1.57;;;;;;;15.04;84.65;95802.66;4245745;32;20182;-62
2022/10/31 09:33:01;;;;;;;2.20;2.10;;;;;;;15.10;84.00;95801.41;4322297;32;20265;-62
2022/10/31 09:35:27;;;;;;;1.70;1.60;;;;;;;15.16;83.73;95796.72;4329167;33;20343;-62
2022/10/31 09:38:01;;;;;;;1.93;1.70;;;;;;;15.25;83.13;95797.53;4326921;32;20197;-62
2022/10/31 09:41:09;;;;;;;1.43;1.37;;;;;;;15.37;81.61;95798.50;4321770;32;20334;-62
2022/10/31 09:44:08;;;;;;;1.13;1.13;;;;;;;15.48;80.60;95796.31;4281539;33;20182;-62
2022/10/31 09:46:53;;;;;;;4.50;1.93;;;;;;;15.47;80.51;95798.19;4270376;33;20278;-62
2022/10/31 09:49:37;;;;;;;0.53;0.53;;;;;;;15.56;79.25;95795.59;4322410;32;20189;-62
2022/10/31 09:52:24;;;;;;;1.27;1.17;;;;;;;15.73;77.97;95792.91;4339086;32;20256;-62
2022/10/31 09:55:14;;;;;;;9.10;1.30;;;;;;;15.67;78.69;95794.16;4315512;33;20205;-62
2022/10/31 09:57:42;;;;;;;6.20;2.30;;;;;;;15.70;78.42;95792.75;4305092;32;20207;-62
2022/10/31 10:00:17;;;;;;;1.70;1.43;;;;;;;15.72;78.03;95791.34;4326351;32;20198;-62
2022/10/31 10:03:04;;;;;;;2.13;1.60;;;;;;;15.74;77.99;95783.78;4322025;32;20197;-62
2022/10/31 10:05:42;;;;;;;0.70;0.70;;;;;;;15.78;77.56;95779.41;4305861;32;20236;-62
2022/10/31 10:08:10;;;;;;;0.97;0.97;;;;;;;15.86;77.21;95774.34;4310828;33;20216;-63
2022/10/31 10:11:01;;;;;;;2.50;2.13;;;;;;;15.92;76.54;95778.44;4321951;33;20252;-62
2022/10/31 10:13:57;;;;;;;11.63;2.63;;;;;;;16.00;76.69;95780.34;4316878;32;20190;-62
2022/10/31 10:16:59;;;;;;;0.97;0.97;;;;;;;16.00;77.00;95781.09;4300271;33;20186;-62
2022/10/31 10:19:42;;;;;;;4.43;1.20;;;;;;;16.11;76.60;95768.19;4318789;32;20246;-62
2022/10/31 10:22:43;;;;;;;2.90;1.13;;;;;;;16.20;75.97;95776.22;4329263;32;20224;-63
2022/10/31 10:25:32;;;;;;;5.00;1.43;;;;;;;16.22;76.47;95776.66;4319691;32;20185;-62
2022/10/31 10:28:12;;;;;;;0.70;0.70;;;;;;;16.40;75.10;95775.56;4303797;33;20190;-62
2022/10/31 10:31:02;;;;;;;0.43;0.43;;;;;;;16.51;74.74;95774.09;4319215;32;20236;-62
2022/10/31 10:33:54;;;;;;;1.87;1.73;;;;;;;16.70;74.16;95771.84;4330170;32;20264;-62
2022/10/31 10:36:42;;;;;;;1.00;1.00;;;;;;;16.77;73.98;95766.00;4313864;33;20186;-62
2022/10/31 10:39:16;;;;;;;0.73;0.73;;;;;;;16.84;73.34;95766.28;4320779;32;20209;-62
2022/10/31 10:41:46;;;;;;;2.23;2.13;;;;;;;16.78;73.86;95762.22;4308984;33;20181;-62
2022/10/31 10:44:12;;;;;;;1.30;1.30;;;;;;;16.83;73.90;95759.38;4304983;32;20340;-62
2022/10/31 10:49:53;;;;;;;0.57;0.57;;;;;;;16.89;73.52;95751.91;4324652;33;20213;-62
2022/10/31 10:52:52;;;;;;;1.23;1.23;;;;;;;17.07;69.10;95750.72;4308803;33;20194;-62
2022/10/31 10:55:32;;;;;;;1.20;1.10;;;;;;;17.22;66.95;95752.88;4302702;33;20193;-62
2022/10/31 10:58:05;;;;;;;1.27;1.17;;;;;;;17.31;65.80;95753.59;4302234;33;20215;-62
2022/10/31 11:00:42;;;;;;;1.63;1.53;;;;;;;17.33;65.88;95748.69;4321579;32;20201;-62
2022/10/31 11:03:10;;;;;;;1.30;1.30;;;;;;;17.34;65.91;95742.22;4296100;32;20247;-63
2022/10/31 11:05:47;;;;;;;1.17;1.13;;;;;;;17.47;65.29;95737.69;4317818;32;20232;-62
2022/10/31 11:08:23;;;;;;;0.67;0.67;;;;;;;17.49;65.21;95732.78;4325144;32;20182;-62
2022/10/31 11:11:03;;;;;;;0.93;0.93;;;;;;;17.49;65.60;95732.78;4307906;32;20190;-62
2022/10/31 11:13:29;;;;;;;1.20;1.00;;;;;;;17.49;65.60;95735.47;4319081;33;20192;-62
2022/10/31 11:16:26;;;;;;;1.23;1.20;;;;;;;17.47;65.75;95730.44;4294887;33;20178;-62
2022/10/31 11:19:05;;;;;;;0.90;0.90;;;;;;;17.49;66.25;95732.78;4321906;32;20205;-62
2022/10/31 11:21:33;;;;;;;0.90;0.90;;;;;;;17.37;67.06;95727.38;4312046;32;20181;-62
2022/10/31 11:24:17;;;;;;;1.10;1.10;;;;;;;17.39;67.31;95725.13;4314960;33;20182;-62
2022/10/31 11:26:46;;;;;;;1.77;1.50;;;;;;;17.41;67.17;95715.66;4293419;33;20182;-62
2022/10/31 11:29:26;;;;;;;1.40;0.83;;;;;;;17.47;66.43;95719.69;4298326;33;20304;-62
2022/10/31 11:31:55;;;;;;;4.37;1.90;;;;;;;17.53;65.18;95712.25;4319000;32;20170;-62
2022/10/31 11:34:37;;;;;;;1.17;0.87;;;;;;;17.54;64.54;95719.19;4327246;32;20243;-62
2022/10/31 11:37:17;;;;;;;1.27;1.17;;;;;;;17.66;64.18;95715.81;4328374;32;20204;-62
2022/10/31 11:39:45;;;;;;;0.67;0.67;;;;;;;17.69;63.91;95715.16;4315063;33;20182;-62
2022/10/31 11:42:11;;;;;;;1.60;1.50;;;;;;;17.76;63.54;95715.41;4322017;32;20364;-62
2022/10/31 11:44:42;;;;;;;1.17;1.03;;;;;;;17.77;63.69;95709.72;4325090;32;20236;-62
2022/10/31 11:47:14;;;;;;;4.13;1.37;;;;;;;17.72;64.40;95701.84;4324258;32;20219;-62
2022/10/31 11:49:43;;;;;;;1.93;1.13;;;;;;;17.71;64.72;95702.97;4331579;32;20204;-62
2022/10/31 11:52:37;;;;;;;0.60;0.60;;;;;;;17.80;64.38;95697.53;4333734;32;20183;-62
2022/10/31 11:55:38;;;;;;;0.77;0.77;;;;;;;17.80;64.33;95684.91;4317873;32;20257;-62
2022/10/31 11:58:19;;;;;;;0.97;0.97;;;;;;;17.69;65.26;95683.72;4298793;33;20223;-62
2022/10/31 12:00:52;;;;;;;1.47;1.37;;;;;;;17.75;64.50;95682.41;4311966;32;20196;-62